createdAt,value
2023-02-11T00:00:37.462Z,45.98
2023-02-11T00:01:32.691Z,46.19
2023-02-11T00:02:34.923Z,45.98
2023-02-11T00:03:32.828Z,45.59
2023-02-11T00:04:40.591Z,46.19
2023-02-11T00:05:32.702Z,45.78
2023-02-11T00:06:36.433Z,45.78
2023-02-11T00:07:32.610Z,45.89
2023-02-11T00:08:33.821Z,44.99
2023-02-11T00:09:33.284Z,44.89
2023-02-11T00:10:34.039Z,44.99
2023-02-11T00:11:32.685Z,45.29
2023-02-11T00:12:35.001Z,46.08
2023-02-11T00:13:32.637Z,45.78
2023-02-11T00:14:36.221Z,45.39
2023-02-11T00:15:33.565Z,45.48
2023-02-11T00:16:35.374Z,45.59
2023-02-11T00:17:32.563Z,45.48
2023-02-11T00:18:37.878Z,45.78
2023-02-11T00:19:32.521Z,45.48
2023-02-11T00:20:37.824Z,45.68
2023-02-11T00:21:32.672Z,45.89
2023-02-11T00:22:32.507Z,45.89
2023-02-11T00:23:32.494Z,46.58
2023-02-11T00:24:34.068Z,46.38
2023-02-11T00:25:32.605Z,46.78
2023-02-11T00:26:32.692Z,46.48
2023-02-11T00:27:32.374Z,45.98
2023-02-11T00:28:32.570Z,46.08
2023-02-11T00:29:34.293Z,46.19
2023-02-11T00:30:38.444Z,46.19
2023-02-11T00:31:33.191Z,46.38
2023-02-11T00:32:32.472Z,46.68
2023-02-11T00:33:32.241Z,46.68
2023-02-11T00:34:33.122Z,46.78
2023-02-11T00:35:32.292Z,46.38
2023-02-11T00:36:34.243Z,46.68
2023-02-11T00:37:32.352Z,47.08
2023-02-11T00:38:33.674Z,46.58
2023-02-11T00:39:32.290Z,46.48
2023-02-11T00:40:32.207Z,46.48
2023-02-11T00:41:33.556Z,46.38
2023-02-11T00:42:34.193Z,46.28
2023-02-11T00:43:32.063Z,46.48
2023-02-11T00:44:32.624Z,46.48
2023-02-11T00:45:32.222Z,46.08
2023-02-11T00:46:34.777Z,46.08
2023-02-11T00:47:33.191Z,46.38
2023-02-11T00:48:32.149Z,46.48
2023-02-11T00:49:32.048Z,46.38
2023-02-11T00:50:34.514Z,46.58
2023-02-11T00:51:32.000Z,46.58
2023-02-11T00:52:34.117Z,46.58
2023-02-11T00:53:32.126Z,46.48
2023-02-11T00:54:32.675Z,46.38
2023-02-11T00:55:31.959Z,46.58
2023-02-11T00:56:32.098Z,46.68
2023-02-11T00:57:31.925Z,46.68
2023-02-11T00:58:32.771Z,46.58
2023-02-11T00:59:32.545Z,46.68
2023-02-11T01:00:34.533Z,46.08
2023-02-11T01:01:31.864Z,46.38
2023-02-11T01:02:33.735Z,45.71
2023-02-11T01:03:31.843Z,46.70
2023-02-11T01:04:33.695Z,46.91
2023-02-11T01:05:33.220Z,47.20
2023-02-11T01:06:36.169Z,46.88
2023-02-11T01:07:31.916Z,47.48
2023-02-11T01:08:32.008Z,47.48
2023-02-11T01:09:31.750Z,47.38
2023-02-11T01:10:32.190Z,47.58
2023-02-11T01:11:31.913Z,47.78
2023-02-11T01:12:33.982Z,47.58
2023-02-11T01:13:32.419Z,47.60
2023-02-11T01:14:35.816Z,47.80
2023-02-11T01:15:31.744Z,47.50
2023-02-11T01:16:35.545Z,47.71
2023-02-11T01:17:32.180Z,47.90
2023-02-11T01:18:33.710Z,48.00
2023-02-11T01:19:32.524Z,47.90
2023-02-11T01:20:32.058Z,47.88
2023-02-11T01:21:31.611Z,47.90
2023-02-11T01:22:35.152Z,47.80
2023-02-11T01:23:31.734Z,48.00
2023-02-11T01:24:35.598Z,47.80
2023-02-11T01:25:31.575Z,48.00
2023-02-11T01:26:31.792Z,47.90
2023-02-11T01:27:31.488Z,47.80
2023-02-11T01:28:35.000Z,47.90
2023-02-11T01:29:31.607Z,48.00
2023-02-11T01:30:32.445Z,47.90
2023-02-11T01:31:31.580Z,48.10
2023-02-11T01:32:32.210Z,47.90
2023-02-11T01:33:31.480Z,47.71
2023-02-11T01:34:34.403Z,48.00
2023-02-11T01:35:31.484Z,48.10
2023-02-11T01:36:31.482Z,47.90
2023-02-11T01:37:31.374Z,48.10
2023-02-11T01:38:33.417Z,47.90
2023-02-11T01:39:32.283Z,47.90
2023-02-11T01:40:31.589Z,48.00
2023-02-11T01:41:31.505Z,47.90
2023-02-11T01:42:36.736Z,48.00
2023-02-11T01:43:31.310Z,48.00
2023-02-11T01:44:33.154Z,48.00
2023-02-11T01:45:32.223Z,48.00
2023-02-11T01:46:34.241Z,47.90
2023-02-11T01:47:32.343Z,48.10
2023-02-11T01:48:32.774Z,47.90
2023-02-11T01:49:31.199Z,48.00
2023-02-11T01:50:32.059Z,47.80
2023-02-11T01:51:31.170Z,47.60
2023-02-11T01:52:32.404Z,47.90
2023-02-11T01:53:32.571Z,47.80
2023-02-11T01:54:34.549Z,47.90
2023-02-11T01:55:31.164Z,47.80
2023-02-11T01:56:33.946Z,48.00
2023-02-11T01:57:31.084Z,47.90
2023-02-11T01:58:32.779Z,48.00
2023-02-11T01:59:31.319Z,48.00
2023-02-11T02:00:31.216Z,47.90
2023-02-11T02:01:31.024Z,47.71
2023-02-11T02:02:31.161Z,47.90
2023-02-11T02:03:31.046Z,47.90
2023-02-11T02:04:34.424Z,48.00
2023-02-11T02:05:31.500Z,47.90
2023-02-11T02:06:33.032Z,48.00
2023-02-11T02:07:31.888Z,47.90
2023-02-11T02:08:31.101Z,47.60
2023-02-11T02:09:30.905Z,47.90
2023-02-11T02:10:31.793Z,48.00
2023-02-11T02:11:31.084Z,47.90
2023-02-11T02:12:32.335Z,48.00
2023-02-11T02:13:30.939Z,47.90
2023-02-11T02:14:34.437Z,47.90
2023-02-11T02:15:30.849Z,48.00
2023-02-11T02:16:33.518Z,47.71
2023-02-11T02:17:31.059Z,48.00
2023-02-11T02:18:32.560Z,47.90
2023-02-11T02:19:30.745Z,47.20
2023-02-11T02:20:33.204Z,47.00
2023-02-11T02:21:30.751Z,47.50
2023-02-11T02:22:32.181Z,47.90
2023-02-11T02:23:30.974Z,47.90
2023-02-11T02:24:33.414Z,47.90
2023-02-11T02:25:30.841Z,47.80
2023-02-11T02:26:33.944Z,47.53
2023-02-11T02:27:30.660Z,48.02
2023-02-11T02:28:33.831Z,47.90
2023-02-11T02:29:30.848Z,48.02
2023-02-11T02:30:30.841Z,47.83
2023-02-11T02:31:30.650Z,47.42
2023-02-11T02:32:32.719Z,47.33
2023-02-11T02:33:31.355Z,47.63
2023-02-11T02:34:34.661Z,47.92
2023-02-11T02:35:31.161Z,47.92
2023-02-11T02:36:34.732Z,47.92
2023-02-11T02:37:30.709Z,47.83
2023-02-11T02:38:30.746Z,48.02
2023-02-11T02:39:30.526Z,47.92
2023-02-11T02:40:32.304Z,47.72
2023-02-11T02:41:31.281Z,48.02
2023-02-11T02:42:31.354Z,47.83
2023-02-11T02:43:30.651Z,48.02
2023-02-11T02:44:30.738Z,47.63
2023-02-11T02:45:30.401Z,47.42
2023-02-11T02:46:31.323Z,47.63
2023-02-11T02:47:31.210Z,47.63
2023-02-11T02:48:32.197Z,47.83
2023-02-11T02:49:30.399Z,47.92
2023-02-11T02:50:32.304Z,47.63
2023-02-11T02:51:30.386Z,47.83
2023-02-11T02:52:31.811Z,47.83
2023-02-11T02:53:30.976Z,48.13
2023-02-11T02:54:31.118Z,48.02
2023-02-11T02:55:30.373Z,47.92
2023-02-11T02:56:32.038Z,48.02
2023-02-11T02:57:30.405Z,48.13
2023-02-11T02:58:30.894Z,47.63
2023-02-11T02:59:30.984Z,47.63
2023-02-11T03:00:33.279Z,47.83
2023-02-11T03:01:31.356Z,47.53
2023-02-11T03:02:33.118Z,47.63
2023-02-11T03:03:30.263Z,47.83
2023-02-11T03:04:34.007Z,47.72
2023-02-11T03:05:30.529Z,47.63
2023-02-11T03:06:34.828Z,47.83
2023-02-11T03:07:30.121Z,47.92
2023-02-11T03:08:34.450Z,47.83
2023-02-11T03:09:30.086Z,47.83
2023-02-11T03:10:30.825Z,47.83
2023-02-11T03:11:30.357Z,48.02
2023-02-11T03:12:33.236Z,47.83
2023-02-11T03:13:30.090Z,47.42
2023-02-11T03:14:30.282Z,47.63
2023-02-11T03:15:30.846Z,47.92
2023-02-11T03:16:31.450Z,47.72
2023-02-11T03:17:30.346Z,47.63
2023-02-11T03:18:32.154Z,48.02
2023-02-11T03:19:29.957Z,47.83
2023-02-11T03:20:33.992Z,48.02
2023-02-11T03:21:29.938Z,48.02
2023-02-11T03:22:30.365Z,47.72
2023-02-11T03:23:30.357Z,47.92
2023-02-11T03:24:33.718Z,47.92
2023-02-11T03:25:29.869Z,48.02
2023-02-11T03:26:33.229Z,47.72
2023-02-11T03:27:30.054Z,47.63
2023-02-11T03:28:33.566Z,47.92
2023-02-11T03:29:29.967Z,47.83
2023-02-11T03:30:30.393Z,47.53
2023-02-11T03:31:29.928Z,47.53
2023-02-11T03:32:32.135Z,48.02
2023-02-11T03:33:29.751Z,47.92
2023-02-11T03:34:29.847Z,47.92
2023-02-11T03:35:30.788Z,48.13
2023-02-11T03:36:32.080Z,48.02
2023-02-11T03:37:30.669Z,48.02
2023-02-11T03:38:33.891Z,48.02
2023-02-11T03:39:29.678Z,47.83
2023-02-11T03:40:31.671Z,47.83
2023-02-11T03:41:30.192Z,48.02
2023-02-11T03:42:35.583Z,48.02
2023-02-11T03:43:30.617Z,48.02
2023-02-11T03:44:30.309Z,48.02
2023-02-11T03:45:29.655Z,48.02
2023-02-11T03:46:33.908Z,48.02
2023-02-11T03:47:30.570Z,47.92
2023-02-11T03:48:30.181Z,48.02
2023-02-11T03:49:29.640Z,48.02
2023-02-11T03:50:33.705Z,48.02
2023-02-11T03:51:29.559Z,47.92
2023-02-11T03:52:31.631Z,48.02
2023-02-11T03:53:30.586Z,48.02
2023-02-11T03:54:34.238Z,47.63
2023-02-11T03:55:29.496Z,47.92
2023-02-11T03:56:31.596Z,47.92
2023-02-11T03:57:29.718Z,47.83
2023-02-11T03:58:34.170Z,47.53
2023-02-11T03:59:29.698Z,46.92
2023-02-11T04:00:31.221Z,47.83
2023-02-11T04:01:30.403Z,47.45
2023-02-11T04:02:32.106Z,46.85
2023-02-11T04:03:29.450Z,47.65
2023-02-11T04:04:30.643Z,47.92
2023-02-11T04:05:29.713Z,47.75
2023-02-11T04:06:32.105Z,47.75
2023-02-11T04:07:29.466Z,47.85
2023-02-11T04:08:31.270Z,47.95
2023-02-11T04:09:29.275Z,47.95
2023-02-11T04:10:30.186Z,47.85
2023-02-11T04:11:29.723Z,47.35
2023-02-11T04:12:33.827Z,47.75
2023-02-11T04:13:29.399Z,47.95
2023-02-11T04:14:32.743Z,47.55
2023-02-11T04:15:29.175Z,47.65
2023-02-11T04:16:31.131Z,47.55
2023-02-11T04:17:30.239Z,47.85
2023-02-11T04:18:31.761Z,47.85
2023-02-11T04:19:29.111Z,48.14
2023-02-11T04:20:29.567Z,47.95
2023-02-11T04:21:29.448Z,47.95
2023-02-11T04:22:29.944Z,48.05
2023-02-11T04:23:29.274Z,47.85
2023-02-11T04:24:32.403Z,47.95
2023-02-11T04:25:29.072Z,47.25
2023-02-11T04:26:29.858Z,47.55
2023-02-11T04:27:29.000Z,47.15
2023-02-11T04:28:34.551Z,47.55
2023-02-11T04:29:29.106Z,47.95
2023-02-11T04:30:34.357Z,47.75
2023-02-11T04:31:29.099Z,47.55
2023-02-11T04:32:29.403Z,47.85
2023-02-11T04:33:28.941Z,47.75
2023-02-11T04:34:29.365Z,47.25
2023-02-11T04:35:29.648Z,47.75
2023-02-11T04:36:30.390Z,47.75
2023-02-11T04:37:28.877Z,47.65
2023-02-11T04:38:32.578Z,48.05
2023-02-11T04:39:28.871Z,47.85
2023-02-11T04:40:29.741Z,47.45
2023-02-11T04:41:29.032Z,47.65
2023-02-11T04:42:29.838Z,47.75
2023-02-11T04:43:28.798Z,47.85
2023-02-11T04:44:29.063Z,47.95
2023-02-11T04:45:29.939Z,47.65
2023-02-11T04:46:34.596Z,47.75
2023-02-11T04:47:28.945Z,47.95
2023-02-11T04:48:29.047Z,48.05
2023-02-11T04:49:28.814Z,47.95
2023-02-11T04:50:28.897Z,47.85
2023-02-11T04:51:28.762Z,48.05
2023-02-11T04:52:28.675Z,47.85
2023-02-11T04:53:29.773Z,47.45
2023-02-11T04:54:29.167Z,47.65
2023-02-11T04:55:28.604Z,47.15
2023-02-11T04:56:32.295Z,47.65
2023-02-11T04:57:29.616Z,47.45
2023-02-11T04:58:28.757Z,47.55
2023-02-11T04:59:29.630Z,47.75
2023-02-11T05:00:28.927Z,47.75
2023-02-11T05:01:29.714Z,47.85
2023-02-11T05:02:28.560Z,47.65
2023-02-11T05:03:28.934Z,47.85
2023-02-11T05:04:28.738Z,47.65
2023-02-11T05:05:28.931Z,47.65
2023-02-11T05:06:30.872Z,47.85
2023-02-11T05:07:29.458Z,47.65
2023-02-11T05:08:29.804Z,47.45
2023-02-11T05:09:28.458Z,47.75
2023-02-11T05:10:28.541Z,47.65
2023-02-11T05:11:29.010Z,47.85
2023-02-11T05:12:28.490Z,47.45
2023-02-11T05:13:28.375Z,47.95
2023-02-11T05:14:28.515Z,47.75
2023-02-11T05:15:28.584Z,47.75
2023-02-11T05:16:28.612Z,47.35
2023-02-11T05:17:29.780Z,47.75
2023-02-11T05:18:28.342Z,47.95
2023-02-11T05:19:28.300Z,47.75
2023-02-11T05:20:28.348Z,47.75
2023-02-11T05:21:28.327Z,47.65
2023-02-11T05:22:28.307Z,47.55
2023-02-11T05:23:28.335Z,47.85
2023-02-11T05:24:28.345Z,47.65
2023-02-11T05:25:28.405Z,47.55
2023-02-11T05:26:28.238Z,47.25
2023-02-11T05:27:28.423Z,47.57
2023-02-11T05:28:28.307Z,47.95
2023-02-11T05:29:28.614Z,47.85
2023-02-11T05:30:28.185Z,47.57
2023-02-11T05:31:28.151Z,47.55
2023-02-11T05:32:28.148Z,47.35
2023-02-11T05:33:28.183Z,47.65
2023-02-11T05:34:28.196Z,47.25
2023-02-11T05:35:28.648Z,47.45
2023-02-11T05:36:28.031Z,47.77
2023-02-11T05:37:28.488Z,47.47
2023-02-11T05:38:28.069Z,47.57
2023-02-11T05:39:28.142Z,47.87
2023-02-11T05:40:28.046Z,47.67
2023-02-11T05:41:28.632Z,47.77
2023-02-11T05:42:28.029Z,47.87
2023-02-11T05:43:28.127Z,47.97
2023-02-11T05:44:28.027Z,47.37
2023-02-11T05:45:28.050Z,47.87
2023-02-11T05:46:28.100Z,47.27
2023-02-11T05:47:28.231Z,47.57
2023-02-11T05:48:27.964Z,47.57
2023-02-11T05:49:27.979Z,47.27
2023-02-11T05:50:28.070Z,47.67
2023-02-11T05:51:28.352Z,46.77
2023-02-11T05:52:27.907Z,47.07
2023-02-11T05:53:27.784Z,47.37
2023-02-11T05:54:27.991Z,47.37
2023-02-11T05:55:27.818Z,47.45
2023-02-11T05:56:27.961Z,47.45
2023-02-11T05:57:27.912Z,47.35
2023-02-11T05:58:27.868Z,47.35
2023-02-11T05:59:28.025Z,47.35
2023-02-11T06:00:27.713Z,47.25
2023-02-11T06:01:27.737Z,47.25
2023-02-11T06:02:28.267Z,47.05
2023-02-11T06:03:27.928Z,47.15
2023-02-11T06:04:28.414Z,47.05
2023-02-11T06:05:27.663Z,47.05
2023-02-11T06:06:27.742Z,47.05
2023-02-11T06:07:27.612Z,46.85
2023-02-11T06:08:27.940Z,46.95
2023-02-11T06:09:27.758Z,46.85
2023-02-11T06:10:27.671Z,46.95
2023-02-11T06:11:27.935Z,46.95
2023-02-11T06:12:27.570Z,46.85
2023-02-11T06:13:28.306Z,46.95
2023-02-11T06:14:27.775Z,46.95
2023-02-11T06:15:28.251Z,46.95
2023-02-11T06:16:27.591Z,46.95
2023-02-11T06:17:27.518Z,46.85
2023-02-11T06:18:27.538Z,46.85
2023-02-11T06:19:27.453Z,46.65
2023-02-11T06:20:30.018Z,46.85
2023-02-11T06:21:42.507Z,46.85
2023-02-11T06:22:28.436Z,46.65
2023-02-11T06:23:29.992Z,46.45
2023-02-11T06:24:48.144Z,46.55
2023-02-11T06:25:29.131Z,47.45
2023-02-11T06:26:28.116Z,47.95
2023-02-11T06:27:27.401Z,47.65
2023-02-11T06:28:27.482Z,48.55
2023-02-11T06:29:27.431Z,48.35
2023-02-11T06:30:27.305Z,47.85
2023-02-11T06:31:27.459Z,48.35
2023-02-11T06:32:43.326Z,48.25
2023-02-11T06:33:28.322Z,48.25
2023-02-11T06:34:27.360Z,48.35
2023-02-11T06:35:27.346Z,48.05
2023-02-11T06:36:28.064Z,47.85
2023-02-11T06:37:27.215Z,46.95
2023-02-11T06:38:27.541Z,47.55
2023-02-11T06:39:27.200Z,48.17
2023-02-11T06:40:27.275Z,48.25
2023-02-11T06:41:27.131Z,48.45
2023-02-11T06:42:27.192Z,48.55
2023-02-11T06:43:27.112Z,48.35
2023-02-11T06:44:27.454Z,48.47
2023-02-11T06:45:27.312Z,48.17
2023-02-11T06:46:27.156Z,48.27
2023-02-11T06:47:27.841Z,48.17
2023-02-11T06:48:27.108Z,48.17
2023-02-11T06:49:27.058Z,48.27
2023-02-11T06:50:27.216Z,48.27
2023-02-11T06:51:27.184Z,48.47
2023-02-11T06:52:27.110Z,48.17
2023-02-11T06:53:27.000Z,48.17
2023-02-11T06:54:27.042Z,48.07
2023-02-11T06:55:26.985Z,48.07
2023-02-11T06:56:27.079Z,48.27
2023-02-11T06:57:27.235Z,48.17
2023-02-11T06:58:27.174Z,48.17
2023-02-11T06:59:26.959Z,48.57
2023-02-11T07:00:26.966Z,48.07
2023-02-11T07:01:26.974Z,48.17
2023-02-11T07:02:27.214Z,48.17
2023-02-11T07:03:26.886Z,48.27
2023-02-11T07:04:26.879Z,48.27
2023-02-11T07:05:26.821Z,48.27
2023-02-11T07:06:27.908Z,48.27
2023-02-11T07:07:27.559Z,47.77
2023-02-11T07:08:26.992Z,47.87
2023-02-11T07:09:27.066Z,48.07
2023-02-11T07:10:26.899Z,47.97
2023-02-11T07:11:26.695Z,48.17
2023-02-11T07:12:26.871Z,48.17
2023-02-11T07:13:26.712Z,48.37
2023-02-11T07:14:26.924Z,48.27
2023-02-11T07:15:26.717Z,48.17
2023-02-11T07:16:26.745Z,48.17
2023-02-11T07:17:26.782Z,47.97
2023-02-11T07:18:26.644Z,48.07
2023-02-11T07:19:26.603Z,47.97
2023-02-11T07:20:26.714Z,47.97
2023-02-11T07:21:26.676Z,48.07
2023-02-11T07:22:26.666Z,47.97
2023-02-11T07:23:26.664Z,47.97
2023-02-11T07:24:26.579Z,47.95
2023-02-11T07:25:26.569Z,47.95
2023-02-11T07:26:26.608Z,47.95
2023-02-11T07:27:26.855Z,47.95
2023-02-11T07:28:26.602Z,47.95
2023-02-11T07:29:26.502Z,47.85
2023-02-11T07:30:26.490Z,47.95
2023-02-11T07:31:26.623Z,47.85
2023-02-11T07:32:26.669Z,47.85
2023-02-11T07:33:26.473Z,47.75
2023-02-11T07:34:26.758Z,47.75
2023-02-11T07:35:26.479Z,47.75
2023-02-11T07:36:26.377Z,47.75
2023-02-11T07:37:26.368Z,47.65
2023-02-11T07:38:27.024Z,47.75
2023-02-11T07:39:26.420Z,47.65
2023-02-11T07:40:27.295Z,47.75
2023-02-11T07:41:26.386Z,47.85
2023-02-11T07:42:26.985Z,47.65
2023-02-11T07:43:27.178Z,47.65
2023-02-11T07:44:26.424Z,47.55
2023-02-11T07:45:26.669Z,47.55
2023-02-11T07:46:26.317Z,47.55
2023-02-11T07:47:27.246Z,47.45
2023-02-11T07:48:26.329Z,47.53
2023-02-11T07:49:26.257Z,47.53
2023-02-11T07:50:27.004Z,47.42
2023-02-11T07:51:26.379Z,47.42
2023-02-11T07:52:26.317Z,47.42
2023-02-11T07:53:26.163Z,47.33
2023-02-11T07:54:26.150Z,47.22
2023-02-11T07:55:26.342Z,47.22
2023-02-11T07:56:26.715Z,47.22
2023-02-11T07:57:26.138Z,47.22
2023-02-11T07:58:26.149Z,47.22
2023-02-11T07:59:26.110Z,47.22
2023-02-11T08:00:26.130Z,47.13
2023-02-11T08:01:26.801Z,47.13
2023-02-11T08:02:26.341Z,47.00
2023-02-11T08:03:26.120Z,47.00
2023-02-11T08:04:26.057Z,47.03
2023-02-11T08:05:26.303Z,47.00
2023-02-11T08:06:26.064Z,46.91
2023-02-11T08:07:25.984Z,46.91
2023-02-11T08:08:26.066Z,46.91
2023-02-11T08:09:26.210Z,46.91
2023-02-11T08:10:26.066Z,46.91
2023-02-11T08:11:25.930Z,46.91
2023-02-11T08:12:26.205Z,46.91
2023-02-11T08:13:26.131Z,46.80
2023-02-11T08:14:26.009Z,46.91
2023-02-11T08:15:26.225Z,46.80
2023-02-11T08:16:26.133Z,46.70
2023-02-11T08:17:25.876Z,46.70
2023-02-11T08:18:25.981Z,46.61
2023-02-11T08:19:26.162Z,46.61
2023-02-11T08:20:26.437Z,46.61
2023-02-11T08:21:25.867Z,46.50
2023-02-11T08:22:25.761Z,46.50
2023-02-11T08:23:25.746Z,46.61
2023-02-11T08:24:25.785Z,46.50
2023-02-11T08:25:26.724Z,46.50
2023-02-11T08:26:25.991Z,46.50
2023-02-11T08:27:25.906Z,46.48
2023-02-11T08:28:25.718Z,46.58
2023-02-11T08:29:26.641Z,46.38
2023-02-11T08:30:27.397Z,46.38
2023-02-11T08:31:26.019Z,46.38
2023-02-11T08:32:26.048Z,46.38
2023-02-11T08:33:26.264Z,46.28
2023-02-11T08:34:25.630Z,46.38
2023-02-11T08:35:26.173Z,46.28
2023-02-11T08:36:26.299Z,46.28
2023-02-11T08:37:25.587Z,46.38
2023-02-11T08:38:25.762Z,46.28
2023-02-11T08:39:25.810Z,46.38
2023-02-11T08:40:25.677Z,46.36
2023-02-11T08:41:25.477Z,46.46
2023-02-11T08:42:26.732Z,46.36
2023-02-11T08:43:25.483Z,46.36
2023-02-11T08:44:26.492Z,46.36
2023-02-11T08:45:25.497Z,46.36
2023-02-11T08:46:25.566Z,46.36
2023-02-11T08:47:25.607Z,46.26
2023-02-11T08:48:25.455Z,46.26
2023-02-11T08:49:25.639Z,46.26
2023-02-11T08:50:25.885Z,46.26
2023-02-11T08:51:25.559Z,46.16
2023-02-11T08:52:26.874Z,46.14
2023-02-11T08:53:25.479Z,46.14
2023-02-11T08:54:25.376Z,46.14
2023-02-11T08:55:25.408Z,46.04
2023-02-11T08:56:25.903Z,46.14
2023-02-11T08:57:25.540Z,46.16
2023-02-11T08:58:25.290Z,46.16
2023-02-11T08:59:25.308Z,46.16
2023-02-11T09:00:25.624Z,46.26
2023-02-11T09:01:25.341Z,46.26
2023-02-11T09:02:25.856Z,46.26
2023-02-11T09:03:25.401Z,46.26
2023-02-11T09:04:25.540Z,46.26
2023-02-11T09:05:25.226Z,46.26
2023-02-11T09:06:25.177Z,46.26
2023-02-11T09:07:25.371Z,46.26
2023-02-11T09:08:25.184Z,46.34
2023-02-11T09:09:25.222Z,46.36
2023-02-11T09:10:25.613Z,46.36
2023-02-11T09:11:25.259Z,46.36
2023-02-11T09:12:26.968Z,46.34
2023-02-11T09:13:25.082Z,46.36
2023-02-11T09:14:25.186Z,46.36
2023-02-11T09:15:25.230Z,46.36
2023-02-11T09:16:25.322Z,46.36
2023-02-11T09:17:25.267Z,46.46
2023-02-11T09:18:25.000Z,46.46
2023-02-11T09:19:25.139Z,46.46
2023-02-11T09:20:25.574Z,46.46
2023-02-11T09:21:26.044Z,46.46
2023-02-11T09:22:25.037Z,46.56
2023-02-11T09:23:25.037Z,46.46
2023-02-11T09:24:24.945Z,46.46
2023-02-11T09:25:24.989Z,46.56
2023-02-11T09:26:25.094Z,46.56
2023-02-11T09:27:26.825Z,46.56
2023-02-11T09:28:24.892Z,46.56
2023-02-11T09:29:24.866Z,46.66
2023-02-11T09:30:24.861Z,46.56
2023-02-11T09:31:25.240Z,46.66
2023-02-11T09:32:24.951Z,46.64
2023-02-11T09:33:25.061Z,46.54
2023-02-11T09:34:24.855Z,46.64
2023-02-11T09:35:24.750Z,46.54
2023-02-11T09:36:25.167Z,46.54
2023-02-11T09:37:25.600Z,46.54
2023-02-11T09:38:24.832Z,46.54
2023-02-11T09:39:24.831Z,46.54
2023-02-11T09:40:24.662Z,46.54
2023-02-11T09:41:24.732Z,46.44
2023-02-11T09:42:24.981Z,46.44
2023-02-11T09:43:24.685Z,46.34
2023-02-11T09:44:24.765Z,46.31
2023-02-11T09:45:24.801Z,46.31
2023-02-11T09:46:24.692Z,46.22
2023-02-11T09:47:24.810Z,46.22
2023-02-11T09:48:24.598Z,46.22
2023-02-11T09:49:24.661Z,46.22
2023-02-11T09:50:24.754Z,46.22
2023-02-11T09:51:24.656Z,46.22
2023-02-11T09:52:24.516Z,46.12
2023-02-11T09:53:24.524Z,46.22
2023-02-11T09:54:24.566Z,46.22
2023-02-11T09:55:24.667Z,46.31
2023-02-11T09:56:24.554Z,46.31
2023-02-11T09:57:28.933Z,46.12
2023-02-11T09:58:24.495Z,46.12
2023-02-11T09:59:24.432Z,46.12
2023-02-11T10:00:24.475Z,46.09
2023-02-11T10:01:24.543Z,46.39
2023-02-11T10:02:24.640Z,46.79
2023-02-11T10:03:24.432Z,47.19
2023-02-11T10:04:24.394Z,47.59
2023-02-11T10:05:25.090Z,48.19
2023-02-11T10:06:24.316Z,48.58
2023-02-11T10:07:24.349Z,48.98
2023-02-11T10:08:24.528Z,49.98
2023-02-11T10:09:24.438Z,49.88
2023-02-11T10:10:24.306Z,50.38
2023-02-11T10:11:31.720Z,50.57
2023-02-11T10:12:25.366Z,50.78
2023-02-11T10:13:24.851Z,51.17
2023-02-11T10:14:24.990Z,50.87
2023-02-11T10:15:24.651Z,51.67
2023-02-11T10:17:36.007Z,51.47
2023-02-11T10:18:36.544Z,51.77
2023-02-11T10:19:36.990Z,51.29
2023-02-11T10:20:36.738Z,51.50
2023-02-11T10:21:35.937Z,52.09
2023-02-11T10:22:39.646Z,52.09
2023-02-11T10:23:35.871Z,52.39
2023-02-11T10:24:39.823Z,51.89
2023-02-11T10:25:36.065Z,51.79
2023-02-11T10:26:38.833Z,51.70
2023-02-11T10:27:35.856Z,51.50
2023-02-11T10:28:39.496Z,51.59
2023-02-11T10:29:35.754Z,51.59
2023-02-11T10:30:37.323Z,51.59
2023-02-11T10:31:35.927Z,51.70
2023-02-11T10:32:39.524Z,51.89
2023-02-11T10:33:35.792Z,51.29
2023-02-11T10:34:39.656Z,51.10
2023-02-11T10:35:35.721Z,51.20
2023-02-11T10:36:38.881Z,51.10
2023-02-11T10:37:35.653Z,50.90
2023-02-11T10:38:42.564Z,50.92
2023-02-11T10:39:35.657Z,50.92
2023-02-11T10:40:39.018Z,50.82
2023-02-11T10:41:35.615Z,50.82
2023-02-11T10:42:40.499Z,50.82
2023-02-11T10:43:35.584Z,50.73
2023-02-11T10:44:41.409Z,50.73
2023-02-11T10:45:35.563Z,50.73
2023-02-11T10:46:35.850Z,50.73
2023-02-11T10:47:35.594Z,50.73
2023-02-11T10:48:38.353Z,50.62
2023-02-11T10:49:35.571Z,50.52
2023-02-11T10:50:38.922Z,50.43
2023-02-11T10:51:35.580Z,50.32
2023-02-11T10:52:40.640Z,50.23
2023-02-11T10:53:36.460Z,50.13
2023-02-11T10:54:37.463Z,50.13
2023-02-11T10:55:35.755Z,50.25
2023-02-11T10:56:38.524Z,50.35
2023-02-11T10:57:35.387Z,50.35
2023-02-11T10:58:36.498Z,50.45
2023-02-11T10:59:35.355Z,50.55
2023-02-11T11:00:41.355Z,50.65
2023-02-11T11:01:36.326Z,50.65
2023-02-11T11:02:39.705Z,50.65
2023-02-11T11:03:35.306Z,50.74
2023-02-11T11:04:40.729Z,50.74
2023-02-11T11:05:35.439Z,50.85
2023-02-11T11:06:38.951Z,50.95
2023-02-11T11:07:36.077Z,50.95
2023-02-11T11:08:41.294Z,50.92
2023-02-11T11:09:36.162Z,51.15
2023-02-11T11:10:44.376Z,51.15
2023-02-11T11:11:35.222Z,51.15
2023-02-11T11:12:36.361Z,51.25
2023-02-11T11:13:35.210Z,51.15
2023-02-11T11:14:40.703Z,51.15
2023-02-11T11:15:35.157Z,51.15
2023-02-11T11:16:37.691Z,51.15
2023-02-11T11:17:35.114Z,51.05
2023-02-11T11:18:36.335Z,51.05
2023-02-11T11:19:36.021Z,50.95
2023-02-11T11:20:38.230Z,50.95
2023-02-11T11:21:35.063Z,50.95
2023-02-11T11:22:35.643Z,50.95
2023-02-11T11:23:35.045Z,51.15
2023-02-11T11:24:40.046Z,51.15
2023-02-11T11:25:35.073Z,51.45
2023-02-11T11:26:39.374Z,51.54
2023-02-11T11:27:35.975Z,51.92
2023-02-11T11:28:37.387Z,52.32
2023-02-11T11:29:35.033Z,52.42
2023-02-11T11:30:40.795Z,52.72
2023-02-11T11:31:35.032Z,53.02
2023-02-11T11:32:37.982Z,53.02
2023-02-11T11:33:35.649Z,53.52
2023-02-11T11:34:35.906Z,53.52
2023-02-11T11:35:35.097Z,53.71
2023-02-11T11:36:39.777Z,54.01
2023-02-11T11:37:34.875Z,53.91
2023-02-11T11:38:39.671Z,54.11
2023-02-11T11:39:35.771Z,54.01
2023-02-11T11:40:41.173Z,54.01
2023-02-11T11:41:34.794Z,54.61
2023-02-11T11:42:37.414Z,54.41
2023-02-11T11:43:34.817Z,54.31
2023-02-11T11:44:36.972Z,54.31
2023-02-11T11:45:34.842Z,54.61
2023-02-11T11:46:38.044Z,54.71
2023-02-11T11:47:34.815Z,54.51
2023-02-11T11:48:37.379Z,54.61
2023-02-11T11:49:34.708Z,54.51
2023-02-11T11:50:36.209Z,54.41
2023-02-11T11:51:34.838Z,54.38
2023-02-11T11:52:36.477Z,54.49
2023-02-11T11:53:34.846Z,54.38
2023-02-11T11:54:37.726Z,54.38
2023-02-11T11:55:34.868Z,54.38
2023-02-11T11:56:40.678Z,54.38
2023-02-11T11:57:34.672Z,54.28
2023-02-11T11:58:39.509Z,54.38
2023-02-11T11:59:34.562Z,54.38
2023-02-11T12:00:37.786Z,54.38
2023-02-11T12:01:34.607Z,54.28
2023-02-11T12:02:36.413Z,54.38
2023-02-11T12:03:35.421Z,54.38
2023-02-11T12:04:35.079Z,54.28
2023-02-11T12:05:34.573Z,54.38
2023-02-11T12:06:37.836Z,54.28
2023-02-11T12:07:34.436Z,54.28
2023-02-11T12:08:39.319Z,54.19
2023-02-11T12:09:34.385Z,54.19
2023-02-11T12:10:39.960Z,54.08
2023-02-11T12:11:34.387Z,54.19
2023-02-11T12:12:35.395Z,54.19
2023-02-11T12:13:36.284Z,53.96
2023-02-11T12:14:37.138Z,53.96
2023-02-11T12:15:34.381Z,54.16
2023-02-11T12:16:40.444Z,53.76
2023-02-11T12:17:34.351Z,54.28
2023-02-11T12:18:40.524Z,53.99
2023-02-11T12:19:34.900Z,54.26
2023-02-11T12:20:34.491Z,54.26
2023-02-11T12:21:34.258Z,54.26
2023-02-11T12:22:37.354Z,54.26
2023-02-11T12:23:37.560Z,54.06
2023-02-11T12:24:34.404Z,54.16
2023-02-11T12:25:34.186Z,54.06
2023-02-11T14:20:53.289Z,53.24
2023-02-11T14:21:59.768Z,53.21
2023-02-11T14:22:52.836Z,53.71
2023-02-11T14:23:52.926Z,53.51
2023-02-11T14:24:53.544Z,53.51
2023-02-11T14:25:52.889Z,53.41
2023-02-11T14:26:53.001Z,54.21
2023-02-11T14:27:52.795Z,54.71
2023-02-11T14:28:52.722Z,54.78
2023-02-11T14:29:54.451Z,54.01
2023-02-11T14:30:53.094Z,53.81
2023-02-11T14:31:52.904Z,52.91
2023-02-11T14:32:53.013Z,51.42
2023-02-11T14:33:52.763Z,49.73
2023-02-11T14:34:52.860Z,47.94
2023-02-11T14:35:52.689Z,45.75
2023-02-11T14:36:52.937Z,44.18
2023-02-11T14:37:52.704Z,48.26
2023-02-11T14:38:53.054Z,43.88
2023-02-11T14:39:52.670Z,42.79
2023-02-11T14:40:53.466Z,42.99
2023-02-11T14:41:52.616Z,42.21
2023-02-11T14:42:52.599Z,42.11
2023-02-11T14:43:52.641Z,41.52
2023-02-11T14:44:52.604Z,40.62
2023-02-11T14:45:52.632Z,41.42
2023-02-11T14:46:52.785Z,40.64
2023-02-11T14:47:52.514Z,40.34